MSC Maeva — H9TF — position and weather

sailwx.info

Track history (hours):
 
Tides and Currents Weather Stations Pressure Air Temp Water Temp Dewpoint Dewpoint Depression Visibility Wind Speed Wind Dir Waves Ship Positions

MSC Maeva

Last reported at 2018-Feb-22 07:00 UTC. Time now 2018-Feb-22 07:17 UTC.
Position N 38°20' E 013°09'.

Type: Ship (hazmat cat A). MMSI: 371851000.

Date/timePositionNaut miles runAvg speedWind from/ knotsBaromVisibWave heightAir tempDewpointWater temp
2018-Feb-22 07:00N 38°20' E 013°09'1121.4
2018-Feb-22 06:31N 38°19' E 013°22'1121.3
2018-Feb-22 06:01N 38°19' E 013°36'1121.1
2018-Feb-22 05:31N 38°19' E 013°49'1121.3
2018-Feb-22 05:01N 38°19' E 014°03'1121.7
2018-Feb-22 04:30N 38°19' E 014°17'2221.6
2018-Feb-22 03:28N 38°19' E 014°45'1021.6
2018-Feb-22 02:59N 38°19' E 014°58'1021.1
2018-Feb-22 02:30N 38°21' E 015°11'1121.3
2018-Feb-22 01:59N 38°23' E 015°25'1020.4
2018-Feb-22 01:31N 38°25' E 015°37'918.9
2018-Feb-22 01:01N 38°27' E 015°49'4 7.8
2018-Feb-22 00:30N 38°27' E 015°54'1 1.2
2018-Feb-21 23:57N 38°28' E 015°54'0 0.0
2018-Feb-21 23:27N 38°28' E 015°54'0 0.0
2018-Feb-21 22:39N 38°28' E 015°54'0 0.0
2018-Feb-21 22:27N 38°28' E 015°54'0 0.0
2018-Feb-21 21:39N 38°28' E 015°54'0 0.0
2018-Feb-21 20:15N 38°28' E 015°54'0 0.0
2018-Feb-21 19:57N 38°28' E 015°54'0 0.0
2018-Feb-21 19:21N 38°28' E 015°54'0 0.0
2018-Feb-21 07:09N 38°28' E 015°54'0 0.0
2018-Feb-21 06:57N 38°28' E 015°54'0 0.0
2018-Feb-21 06:27N 38°28' E 015°54'0 0.0
2018-Feb-21 05:57N 38°28' E 015°54'0 0.0
2018-Feb-21 05:30N 38°28' E 015°54'3 3.2
2018-Feb-21 04:42N 38°27' E 015°51'18 8.0
2018-Feb-21 02:30N 38°13' E 015°37'612.5
2018-Feb-21 01:59N 38°07' E 015°36'4 9.1
2018-Feb-21 01:30N 38°03' E 015°36'5 9.6
2018-Feb-21 01:00N 37°58' E 015°36'612.1
2018-Feb-21 00:29N 37°52' E 015°40'612.0
2018-Feb-21 00:00N 37°50' E 015°47'812.2
2018-Feb-20 23:22N 37°48' E 015°56'512.8
2018-Feb-20 23:00N 37°46' E 016°01'713.2
2018-Feb-20 22:30N 37°43' E 016°09'  
Track history (hours):
 
Tides and Currents Weather Stations Pressure Air Temp Water Temp Dewpoint Dewpoint Depression Visibility Wind Speed Wind Dir Waves Ship Positions

MSC Maeva

Last reported at 2018-Feb-22 07:00 UTC. Time now 2018-Feb-22 07:17 UTC.
Position N 38°20' E 013°09'.

Type: Ship (hazmat cat A). MMSI: 371851000.

Date/timePositionNaut miles runAvg speedWind from/ knotsBaromVisibWave heightAir tempDewpointWater temp
2018-Feb-22 07:00N 38°20' E 013°09'1121.4
2018-Feb-22 06:31N 38°19' E 013°22'1121.3
2018-Feb-22 06:01N 38°19' E 013°36'1121.1
2018-Feb-22 05:31N 38°19' E 013°49'1121.3
2018-Feb-22 05:01N 38°19' E 014°03'1121.7
2018-Feb-22 04:30N 38°19' E 014°17'2221.6
2018-Feb-22 03:28N 38°19' E 014°45'1021.6
2018-Feb-22 02:59N 38°19' E 014°58'1021.1
2018-Feb-22 02:30N 38°21' E 015°11'1121.3
2018-Feb-22 01:59N 38°23' E 015°25'1020.4
2018-Feb-22 01:31N 38°25' E 015°37'918.9
2018-Feb-22 01:01N 38°27' E 015°49'4 7.8
2018-Feb-22 00:30N 38°27' E 015°54'1 1.2
2018-Feb-21 23:57N 38°28' E 015°54'0 0.0
2018-Feb-21 23:27N 38°28' E 015°54'0 0.0
2018-Feb-21 22:39N 38°28' E 015°54'0 0.0
2018-Feb-21 22:27N 38°28' E 015°54'0 0.0
2018-Feb-21 21:39N 38°28' E 015°54'0 0.0
2018-Feb-21 20:15N 38°28' E 015°54'0 0.0
2018-Feb-21 19:57N 38°28' E 015°54'0 0.0
2018-Feb-21 19:21N 38°28' E 015°54'0 0.0
2018-Feb-21 07:09N 38°28' E 015°54'0 0.0
2018-Feb-21 06:57N 38°28' E 015°54'0 0.0
2018-Feb-21 06:27N 38°28' E 015°54'0 0.0
2018-Feb-21 05:57N 38°28' E 015°54'0 0.0
2018-Feb-21 05:30N 38°28' E 015°54'3 3.2
2018-Feb-21 04:42N 38°27' E 015°51'18 8.0
2018-Feb-21 02:30N 38°13' E 015°37'612.5
2018-Feb-21 01:59N 38°07' E 015°36'4 9.1
2018-Feb-21 01:30N 38°03' E 015°36'5 9.6
2018-Feb-21 01:00N 37°58' E 015°36'612.1
2018-Feb-21 00:29N 37°52' E 015°40'612.0
2018-Feb-21 00:00N 37°50' E 015°47'812.2
2018-Feb-20 23:22N 37°48' E 015°56'512.8
2018-Feb-20 23:00N 37°46' E 016°01'713.2
2018-Feb-20 22:30N 37°43' E 016°09'  

Dump ship's entire track history